Time;durP1;ratioP1;P1;durP2;ratioP2;P2;SDS_P1;SDS_P2;PMS_P1;PMS_P2;Temp;Humidity;BMP_temperature;BMP_pressure;BME280_temperature;BME280_humidity;BME280_pressure;Samples;Min_cycle;Max_cycle;Signal;HPM_P1;HPM_P2
2021/08/09 00:01:23;;;;;;;1.77;0.30;;;;;;;12.95;87.57;99423.91;1995652;77;22291;-77
2021/08/09 00:04:26;;;;;;;0.59;0.26;;;;;;;12.90;87.58;99416.13;1999690;80;20193;-77
2021/08/09 00:07:29;;;;;;;2.00;0.30;;;;;;;12.85;87.64;99414.47;1999744;81;20454;-78
2021/08/09 00:10:31;;;;;;;2.64;0.22;;;;;;;12.84;87.61;99416.22;1999086;81;20190;-77
2021/08/09 00:13:35;;;;;;;2.05;0.46;;;;;;;12.83;87.60;99424.06;1998669;80;20209;-77
2021/08/09 00:16:37;;;;;;;1.95;0.39;;;;;;;12.81;87.58;99421.47;1999027;79;23758;-77
2021/08/09 00:19:40;;;;;;;1.80;0.40;;;;;;;12.78;87.66;99421.53;2003022;80;20197;-77
2021/08/09 00:22:42;;;;;;;0.40;0.21;;;;;;;12.74;87.63;99414.59;1999555;81;20211;-78
2021/08/09 00:25:45;;;;;;;0.74;0.35;;;;;;;12.71;87.62;99418.13;1999497;81;20247;-78
2021/08/09 00:28:48;;;;;;;1.00;0.22;;;;;;;12.69;87.52;99408.59;1999847;81;20217;-77
2021/08/09 00:31:50;;;;;;;2.15;0.96;;;;;;;12.68;87.38;99410.34;1995982;78;21239;-77
2021/08/09 00:34:53;;;;;;;2.79;0.30;;;;;;;12.65;87.43;99409.53;1995066;80;20182;-79
2021/08/09 00:37:55;;;;;;;1.96;0.30;;;;;;;12.62;87.53;99409.56;1994925;80;20224;-78
2021/08/09 00:40:58;;;;;;;0.79;0.40;;;;;;;12.61;87.62;99402.63;1994631;81;20271;-77
2021/08/09 00:44:00;;;;;;;0.90;0.32;;;;;;;12.60;87.50;99411.34;1995049;80;20263;-77
2021/08/09 00:47:03;;;;;;;2.15;0.30;;;;;;;12.58;87.51;99407.88;1998871;77;21875;-78
2021/08/09 00:50:06;;;;;;;2.38;0.30;;;;;;;12.56;87.54;99417.44;1999623;81;20193;-78
2021/08/09 00:53:09;;;;;;;1.41;0.30;;;;;;;12.54;87.81;99414.84;2000002;81;20233;-77
2021/08/09 00:56:12;;;;;;;0.73;0.30;;;;;;;12.55;87.80;99415.72;1999702;81;20235;-77
2021/08/09 00:59:15;;;;;;;1.05;0.30;;;;;;;12.56;88.23;99418.31;1999735;81;20269;-78
2021/08/09 01:02:19;;;;;;;1.05;0.39;;;;;;;12.53;88.63;99418.34;1995259;78;29259;-78
2021/08/09 01:05:21;;;;;;;1.16;0.46;;;;;;;12.53;88.83;99420.94;1994522;80;20298;-77
2021/08/09 01:08:49;;;;;;;2.41;0.30;;;;;;;12.55;88.88;99415.72;1994842;80;20667;-78
2021/08/09 01:12:09;;;;;;;0.93;0.30;;;;;;;12.56;89.01;99402.66;1994607;81;20249;-77
2021/08/09 01:15:36;;;;;;;1.02;0.32;;;;;;;12.62;89.46;99410.44;1993866;80;20290;-78
2021/08/09 01:18:41;;;;;;;2.30;0.31;;;;;;;12.65;89.15;99412.13;2001290;78;58804;-78
2021/08/09 01:21:43;;;;;;;0.74;0.30;;;;;;;12.67;89.49;99410.38;2000208;81;20229;-78
2021/08/09 01:25:07;;;;;;;1.29;0.30;;;;;;;12.68;89.55;99406.88;1999772;81;20416;-77
2021/08/09 01:28:10;;;;;;;2.30;0.50;;;;;;;12.71;89.26;99404.22;2000185;81;20253;-77
2021/08/09 01:31:15;;;;;;;0.95;0.40;;;;;;;12.70;89.41;99405.13;1999809;81;20245;-78
2021/08/09 01:34:20;;;;;;;2.30;0.34;;;;;;;12.73;89.25;99394.66;1996240;78;25995;-77
2021/08/09 01:37:24;;;;;;;1.59;0.30;;;;;;;12.71;89.10;99392.06;1994293;80;20271;-78
2021/08/09 01:40:28;;;;;;;1.10;0.30;;;;;;;12.76;89.22;99396.38;1995251;80;20675;-78
2021/08/09 01:43:31;;;;;;;1.83;0.40;;;;;;;12.69;89.24;99399.03;1994068;80;20238;-77
2021/08/09 01:46:36;;;;;;;1.80;0.30;;;;;;;12.71;89.13;99407.69;1995797;78;23230;-77
2021/08/09 01:49:39;;;;;;;1.95;0.45;;;;;;;12.71;89.36;99406.84;1999704;81;20250;-77
2021/08/09 01:52:43;;;;;;;1.04;0.30;;;;;;;12.68;89.64;99404.28;1999206;81;20165;-77
2021/08/09 01:55:46;;;;;;;1.50;0.40;;;;;;;12.69;89.64;99408.59;1999445;81;20740;-77
2021/08/09 01:58:51;;;;;;;2.09;0.38;;;;;;;12.70;89.76;99411.19;2000137;81;20631;-77
2021/08/09 02:01:54;;;;;;;1.10;0.24;;;;;;;12.73;89.75;99402.47;1996330;78;24163;-77
2021/08/09 02:05:11;;;;;;;3.11;0.26;;;;;;;12.74;89.48;99406.78;1995781;80;20190;-77
2021/08/09 02:08:14;;;;;;;0.95;0.30;;;;;;;12.74;89.59;99424.16;1995453;80;20241;-78
2021/08/09 02:11:22;;;;;;;0.39;0.22;;;;;;;12.74;89.46;99409.41;1997172;80;20251;-78
2021/08/09 02:14:28;;;;;;;0.50;0.30;;;;;;;12.76;89.44;99409.41;1996110;80;20182;-77
2021/08/09 02:17:48;;;;;;;2.80;0.39;;;;;;;12.78;89.70;99418.06;1998916;78;21612;-77
2021/08/09 02:20:56;;;;;;;1.95;0.40;;;;;;;12.74;89.99;99430.25;2000569;81;20312;-78
2021/08/09 02:24:03;;;;;;;;;;;;;;;12.75;90.19;99431.09;2001087;80;20262;-77
2021/08/09 02:27:10;;;;;;;2.88;0.30;;;;;;;12.78;90.06;99429.34;2000629;81;20057;-79
2021/08/09 02:30:16;;;;;;;0.69;0.66;;;;;;;12.79;89.86;99436.28;2000556;80;20850;-77
2021/08/09 02:33:22;;;;;;;1.27;0.31;;;;;;;12.81;90.06;99438.84;1997206;79;24390;-77
2021/08/09 02:36:26;;;;;;;3.19;0.30;;;;;;;12.80;90.06;99438.00;2000515;81;20268;-77
2021/08/09 02:39:31;;;;;;;1.96;0.30;;;;;;;12.79;90.18;99438.03;2000829;81;20182;-77
2021/08/09 02:42:34;;;;;;;3.25;0.51;;;;;;;12.81;90.13;99436.25;2001364;80;20229;-78
2021/08/09 02:45:38;;;;;;;1.99;0.81;;;;;;;12.82;89.99;99436.22;1998482;78;21823;-78
2021/08/09 02:48:41;;;;;;;2.50;0.45;;;;;;;12.84;89.74;99442.28;1996247;80;20248;-78
2021/08/09 02:51:46;;;;;;;2.90;0.30;;;;;;;12.83;89.63;99437.09;1995251;80;20326;-77
2021/08/09 02:54:49;;;;;;;0.57;0.30;;;;;;;12.77;89.53;99435.44;1995878;80;20218;-79
2021/08/09 02:57:53;;;;;;;4.78;0.30;;;;;;;12.71;89.77;99431.13;1995598;80;20729;-78
2021/08/09 03:00:57;;;;;;;0.70;0.30;;;;;;;12.69;90.12;99430.31;1996462;78;22472;-78
2021/08/09 03:04:01;;;;;;;1.02;0.40;;;;;;;12.72;90.10;99429.41;2000257;81;20239;-78
2021/08/09 03:07:06;;;;;;;2.38;0.32;;;;;;;12.71;90.36;99438.97;1999327;81;20266;-77
2021/08/09 03:10:10;;;;;;;0.39;0.35;;;;;;;12.75;90.56;99431.09;1999851;81;20266;-78
2021/08/09 03:13:13;;;;;;;1.21;0.40;;;;;;;12.78;90.80;99426.75;2000039;81;20190;-78
2021/08/09 03:16:17;;;;;;;1.29;0.40;;;;;;;12.78;90.65;99425.88;1996977;78;22630;-78
2021/08/09 03:19:20;;;;;;;0.44;0.30;;;;;;;12.80;90.60;99422.38;1995432;81;20210;-78
2021/08/09 03:22:22;;;;;;;0.64;0.30;;;;;;;12.83;90.26;99419.72;1991773;80;20259;-78
2021/08/09 03:25:25;;;;;;;1.02;0.35;;;;;;;12.87;90.19;99421.38;1995138;80;20187;-78
2021/08/09 03:28:27;;;;;;;0.59;0.36;;;;;;;12.91;90.24;99424.81;1995153;80;20256;-78
2021/08/09 03:31:30;;;;;;;2.55;0.30;;;;;;;12.90;90.15;99420.47;1998682;78;25767;-77
2021/08/09 03:34:33;;;;;;;1.85;0.44;;;;;;;12.86;90.06;99424.03;1999910;80;20280;-77
2021/08/09 03:37:35;;;;;;;0.44;0.30;;;;;;;12.82;90.19;99423.19;1996741;81;20162;-78
2021/08/09 03:40:38;;;;;;;2.49;0.40;;;;;;;12.79;90.21;99423.25;1999917;81;20266;-77
2021/08/09 03:43:41;;;;;;;1.38;0.40;;;;;;;12.80;89.86;99427.56;2000790;81;20262;-79
2021/08/09 03:46:43;;;;;;;0.94;0.24;;;;;;;12.78;89.86;99425.88;1996602;78;22747;-78
2021/08/09 03:49:46;;;;;;;0.44;0.40;;;;;;;12.70;89.75;99428.56;1995175;80;20233;-78
2021/08/09 03:52:52;;;;;;;0.63;0.30;;;;;;;12.70;89.87;99424.22;1994709;80;21288;-77
2021/08/09 03:55:54;;;;;;;0.84;0.30;;;;;;;12.71;90.31;99422.47;1995452;80;20683;-77
2021/08/09 03:58:57;;;;;;;0.57;0.30;;;;;;;12.69;90.47;99427.69;1994971;80;20195;-77
2021/08/09 04:02:00;;;;;;;2.50;0.44;;;;;;;12.67;90.47;99429.47;1994409;78;21656;-77
2021/08/09 04:05:03;;;;;;;2.58;0.46;;;;;;;12.63;90.55;99430.38;1994809;80;20174;-78
2021/08/09 04:08:06;;;;;;;1.44;0.40;;;;;;;12.62;90.44;99433.00;1995039;80;20662;-78
2021/08/09 04:11:09;;;;;;;1.23;0.57;;;;;;;12.60;90.44;99442.59;1994834;80;20167;-78
2021/08/09 04:14:11;;;;;;;2.16;0.36;;;;;;;12.60;90.27;99443.47;1995087;80;20588;-77
2021/08/09 04:17:15;;;;;;;3.59;0.50;;;;;;;12.62;90.25;99449.50;1998074;78;23376;-77
2021/08/09 04:20:17;;;;;;;0.94;0.40;;;;;;;12.67;90.35;99449.44;2000176;81;20197;-77
2021/08/09 04:23:20;;;;;;;0.50;0.40;;;;;;;12.70;90.26;99447.66;1999760;80;20235;-77
2021/08/09 04:26:23;;;;;;;0.47;0.30;;;;;;;12.75;90.22;99451.94;2000925;81;20783;-78
2021/08/09 04:29:26;;;;;;;1.71;0.32;;;;;;;12.79;90.23;99449.31;1999727;81;20939;-78
2021/08/09 04:32:39;;;;;;;1.55;0.50;;;;;;;12.82;90.25;99451.88;1995498;78;22851;-77
2021/08/09 04:35:42;;;;;;;0.50;0.38;;;;;;;12.84;90.51;99455.31;1994739;80;20259;-77
2021/08/09 04:38:44;;;;;;;2.44;0.40;;;;;;;12.87;90.22;99449.19;1996061;80;20174;-79
2021/08/09 04:41:47;;;;;;;2.46;0.49;;;;;;;12.90;90.15;99447.41;1996798;80;20183;-78
2021/08/09 04:45:09;;;;;;;1.08;0.30;;;;;;;12.93;90.16;99444.78;1993046;80;20959;-79
2021/08/09 04:48:12;;;;;;;0.96;0.50;;;;;;;12.96;89.90;99443.88;1997249;78;25591;-79
2021/08/09 04:51:14;;;;;;;3.86;0.40;;;;;;;13.00;89.84;99440.34;1996709;80;20166;-79
2021/08/09 04:54:17;;;;;;;2.65;0.30;;;;;;;13.01;89.90;99440.31;1997603;80;20223;-79
2021/08/09 04:57:20;;;;;;;1.38;0.40;;;;;;;12.98;90.03;99439.50;1999450;80;20178;-79
2021/08/09 05:00:22;;;;;;;1.27;0.43;;;;;;;13.06;90.13;99439.38;1999259;78;33281;-80
2021/08/09 05:03:25;;;;;;;1.34;0.40;;;;;;;13.12;90.26;99442.78;2002647;81;20218;-79
2021/08/09 05:06:28;;;;;;;0.40;0.30;;;;;;;13.14;90.51;99441.03;2001444;81;20199;-79
2021/08/09 05:09:32;;;;;;;0.82;0.30;;;;;;;13.16;90.33;99441.84;2002456;81;20182;-80
2021/08/09 05:12:35;;;;;;;1.96;0.40;;;;;;;13.20;90.44;99442.69;2002300;81;20857;-79
2021/08/09 05:15:40;;;;;;;0.82;0.40;;;;;;;13.33;90.07;99440.78;2001417;78;24911;-80
2021/08/09 05:18:42;;;;;;;1.39;0.40;;;;;;;13.50;89.77;99446.63;2003269;81;20166;-80
2021/08/09 05:21:45;;;;;;;1.01;0.60;;;;;;;13.71;89.44;99435.84;2002640;81;20229;-79
2021/08/09 05:24:48;;;;;;;1.02;0.40;;;;;;;13.86;88.88;99446.03;2003322;81;20808;-80
2021/08/09 05:27:51;;;;;;;0.73;0.40;;;;;;;13.94;88.47;99451.09;2004320;80;20211;-79
2021/08/09 05:30:54;;;;;;;4.70;0.40;;;;;;;13.98;88.33;99454.50;1999789;78;26088;-77
2021/08/09 05:33:57;;;;;;;4.30;0.44;;;;;;;13.98;88.07;99462.34;1994645;80;20203;-79
2021/08/09 05:37:00;;;;;;;4.14;0.46;;;;;;;14.03;87.81;99465.75;1999225;80;20204;-81
2021/08/09 05:40:05;;;;;;;1.39;0.41;;;;;;;14.08;87.88;99464.78;2007243;80;20154;-80
2021/08/09 05:43:19;;;;;;;2.34;0.40;;;;;;;14.12;87.77;99466.44;2004120;80;20178;-81
2021/08/09 05:46:21;;;;;;;3.14;0.40;;;;;;;14.16;87.62;99473.34;1992439;80;1303630;-78
2021/08/09 05:53:15;;;;;;;3.90;0.41;;;;;;;14.15;86.99;99476.84;2013496;70;20218;-79
2021/08/09 05:56:21;;;;;;;2.99;0.40;;;;;;;14.16;86.89;99473.34;2002599;80;20229;-81
2021/08/09 05:59:23;;;;;;;1.39;0.50;;;;;;;14.18;86.66;99475.91;2006197;80;20215;-82
2021/08/09 06:02:26;;;;;;;3.67;1.33;;;;;;;14.14;86.86;99480.34;2003072;78;163448;-80
2021/08/09 06:05:31;;;;;;;307.69;80.28;;;;;;;14.14;87.13;99479.47;2002806;80;20315;-78
2021/08/09 06:08:42;;;;;;;340.30;73.93;;;;;;;14.25;87.62;99492.34;2005346;80;20240;-82
2021/08/09 06:11:48;;;;;;;170.26;40.94;;;;;;;14.46;87.71;99492.00;2002281;80;20202;-78
2021/08/09 06:14:53;;;;;;;42.36;10.84;;;;;;;14.65;87.48;99484.66;2002269;80;20190;-79
2021/08/09 06:17:57;;;;;;;37.65;6.20;;;;;;;15.22;86.70;99497.44;2001549;78;20889;-80
2021/08/09 06:21:01;;;;;;;53.83;11.66;;;;;;;15.30;84.49;99485.06;2005403;80;20224;-77
2021/08/09 06:24:12;;;;;;;8.85;2.54;;;;;;;15.47;83.59;99479.47;2000057;80;20195;-80
2021/08/09 06:27:33;;;;;;;2.61;0.86;;;;;;;15.60;83.56;99480.91;2008038;80;20243;-80
2021/08/09 06:34:45;;;;;;;3.25;0.70;;;;;;;16.21;81.53;99471.56;2015717;70;20210;-80
2021/08/09 06:38:19;;;;;;;0.96;0.40;;;;;;;16.85;78.68;99475.94;2004353;81;20170;-81
2021/08/09 06:41:42;;;;;;;2.85;0.39;;;;;;;16.67;77.81;99470.34;2001349;81;20186;-80
2021/08/09 06:44:44;;;;;;;1.94;0.34;;;;;;;17.41;75.66;99469.91;1998751;80;20211;-80
2021/08/09 06:47:47;;;;;;;1.51;0.44;;;;;;;17.75;74.88;99470.59;2001173;78;124317;-80
2021/08/09 06:50:51;;;;;;;0.82;0.41;;;;;;;18.16;73.56;99472.78;2003713;80;20555;-80
2021/08/09 06:53:55;;;;;;;1.85;0.56;;;;;;;18.58;71.75;99463.38;2005402;80;20295;-81
2021/08/09 06:57:09;;;;;;;0.79;0.38;;;;;;;18.95;69.32;99465.56;2004597;80;20200;-81
2021/08/09 07:00:34;;;;;;;3.34;0.40;;;;;;;19.26;67.82;99465.25;2002187;78;294914;-81
2021/08/09 07:03:56;;;;;;;2.29;0.70;;;;;;;19.58;65.49;99471.09;2011743;81;20194;-80
2021/08/09 07:07:06;;;;;;;1.70;0.55;;;;;;;20.00;65.13;99462.34;2011833;81;20227;-81
2021/08/09 07:10:17;;;;;;;1.73;0.32;;;;;;;20.09;63.98;99470.69;2008722;81;20170;-81
2021/08/09 07:13:30;;;;;;;2.25;0.40;;;;;;;19.82;63.81;99471.84;2008135;81;20265;-80
2021/08/09 07:16:32;;;;;;;2.24;0.30;;;;;;;19.58;64.78;99471.94;2004651;78;26469;-79
2021/08/09 07:19:36;;;;;;;1.13;0.40;;;;;;;19.72;66.07;99462.59;1999034;80;20174;-79
2021/08/09 07:26:09;;;;;;;3.10;0.40;;;;;;;20.20;64.72;99465.84;2075865;70;20174;-85
2021/08/09 07:29:12;;;;;;;3.09;0.65;;;;;;;20.43;64.04;99466.66;2021894;79;20168;-84
2021/08/09 07:32:15;;;;;;;2.34;0.30;;;;;;;20.68;62.76;99469.97;2026387;77;158875;-83
2021/08/09 08:03:52;;;;;;;0.55;0.35;;;;;;;20.77;60.80;99505.63;2114160;70;20134;-84
2021/08/09 08:07:05;;;;;;;2.70;0.40;;;;;;;20.43;60.72;99500.94;2036052;79;20160;-84
2021/08/09 09:03:58;;;;;;;2.07;0.47;;;;;;;22.91;51.47;99496.13;2045992;69;20275;-82
2021/08/09 09:07:13;;;;;;;2.03;0.50;;;;;;;22.56;52.21;99500.59;2032307;80;20166;-81
2021/08/09 09:10:22;;;;;;;2.96;0.60;;;;;;;22.21;53.15;99502.38;2033595;80;20193;-81
2021/08/09 09:13:24;;;;;;;1.98;0.60;;;;;;;22.24;54.83;99508.38;2034368;80;20175;-83
2021/08/09 09:16:42;;;;;;;3.03;0.60;;;;;;;22.21;55.14;99502.38;2034492;80;20166;-81
2021/08/09 09:19:44;;;;;;;3.11;0.73;;;;;;;22.18;55.35;99507.84;2034625;80;20240;-82
2021/08/09 09:22:47;;;;;;;1.24;0.51;;;;;;;21.92;54.21;99504.69;2032868;79;20221;-81
2021/08/09 09:25:51;;;;;;;2.66;0.55;;;;;;;21.95;55.78;99508.94;2033483;80;20178;-81
2021/08/09 09:29:05;;;;;;;3.63;1.15;;;;;;;21.98;54.92;99509.66;2033318;80;20187;-82
2021/08/09 09:32:19;;;;;;;2.45;0.55;;;;;;;21.96;55.16;99505.38;2036317;77;26910;-81
2021/08/09 09:35:21;;;;;;;1.70;0.47;;;;;;;21.85;56.36;99511.19;2033094;80;20174;-81
2021/08/09 09:38:26;;;;;;;2.80;0.73;;;;;;;21.61;54.79;99520.28;2032836;80;21036;-81
2021/08/09 09:41:28;;;;;;;2.11;0.50;;;;;;;21.74;55.16;99515.28;2031481;80;20175;-82
2021/08/09 09:44:33;;;;;;;2.45;0.66;;;;;;;21.76;54.66;99509.00;2029440;80;20270;-80
2021/08/09 09:47:36;;;;;;;5.80;0.60;;;;;;;21.95;55.38;99517.75;2029213;77;28008;-81
2021/08/09 09:50:41;;;;;;;3.20;0.60;;;;;;;22.32;53.57;99523.88;2033417;80;20216;-80
2021/08/09 09:53:50;;;;;;;4.01;0.56;;;;;;;22.71;53.27;99522.78;2031422;80;20175;-81
2021/08/09 09:56:55;;;;;;;2.36;0.49;;;;;;;22.67;53.42;99515.94;2038667;80;20139;-84
2021/08/09 10:00:00;;;;;;;2.53;0.60;;;;;;;22.56;52.74;99522.63;2036281;80;20279;-82
2021/08/09 10:03:03;;;;;;;1.54;0.49;;;;;;;22.46;51.42;99521.41;2015533;79;1298455;-81
2021/08/09 10:06:06;;;;;;;2.45;0.60;;;;;;;22.53;51.65;99519.28;2010512;80;20226;-81
2021/08/09 10:09:11;;;;;;;1.34;0.80;;;;;;;22.56;48.52;99525.28;2008484;80;20169;-80
2021/08/09 10:12:21;;;;;;;2.75;0.60;;;;;;;22.58;49.90;99527.84;2016471;80;20207;-81
2021/08/09 10:15:33;;;;;;;2.41;0.50;;;;;;;22.80;48.17;99527.56;2011717;80;20185;-82
2021/08/09 10:18:46;;;;;;;3.31;0.61;;;;;;;23.05;48.08;99528.03;2012693;80;20276;-81
2021/08/09 10:21:51;;;;;;;2.53;0.50;;;;;;;23.19;48.32;99536.13;2010725;80;20178;-81
2021/08/09 10:24:55;;;;;;;3.15;0.50;;;;;;;22.97;47.58;99540.81;2013534;81;20246;-81
2021/08/09 10:28:03;;;;;;;2.70;0.51;;;;;;;22.80;47.50;99530.22;2029971;79;20259;-81
2021/08/09 10:31:28;;;;;;;2.53;0.52;;;;;;;22.75;48.62;99537.56;2029432;79;20178;-81
2021/08/09 10:34:42;;;;;;;1.16;0.40;;;;;;;22.61;47.68;99548.84;2012145;80;20197;-82
2021/08/09 10:38:14;;;;;;;1.09;0.41;;;;;;;22.68;46.79;99536.19;2010073;80;20174;-80
2021/08/09 10:41:30;;;;;;;2.63;0.47;;;;;;;22.61;47.56;99539.13;2008378;80;20178;-79
2021/08/09 10:44:48;;;;;;;1.45;0.45;;;;;;;22.64;47.90;99538.13;2026812;79;20415;-80
2021/08/09 10:47:56;;;;;;;1.24;0.40;;;;;;;22.75;49.04;99537.56;2009029;77;205569;-80
2021/08/09 10:50:58;;;;;;;2.96;0.47;;;;;;;22.86;48.07;99533.47;2027068;79;20225;-80
2021/08/09 10:54:28;;;;;;;4.39;0.56;;;;;;;23.27;47.21;99540.13;2012943;80;20226;-81
2021/08/09 10:57:43;;;;;;;1.96;0.69;;;;;;;23.67;47.54;99537.03;2011190;81;20249;-80
2021/08/09 11:00:49;;;;;;;1.40;0.40;;;;;;;23.77;46.62;99532.94;2010057;77;21018;-81
2021/08/09 11:04:01;;;;;;;2.33;0.46;;;;;;;23.93;46.07;99530.28;2029729;80;20196;-81
2021/08/09 11:07:15;;;;;;;1.38;0.44;;;;;;;23.80;44.31;99539.84;2032161;80;20171;-80
2021/08/09 11:10:58;;;;;;;2.91;0.60;;;;;;;23.67;44.61;99531.72;2033458;80;20202;-80
2021/08/09 11:14:01;;;;;;;3.24;0.64;;;;;;;23.51;45.20;99531.69;2031426;80;20310;-80
2021/08/09 11:17:03;;;;;;;2.14;0.49;;;;;;;23.45;45.59;99531.19;2030119;77;20957;-80
2021/08/09 11:20:10;;;;;;;2.59;0.49;;;;;;;23.19;43.92;99529.97;2027921;80;20174;-80
2021/08/09 11:23:18;;;;;;;3.33;0.80;;;;;;;23.26;46.33;99528.69;2028731;80;20206;-83
2021/08/09 11:30:03;;;;;;;3.53;0.51;;;;;;;23.67;47.21;99528.22;2019100;69;20229;-83
2021/08/09 11:38:12;;;;;;;1.90;0.53;;;;;;;23.60;45.67;99532.16;2241689;69;20336;-80
2021/08/09 11:41:28;;;;;;;1.93;0.49;;;;;;;23.26;44.38;99531.31;2014973;80;20633;-80
2021/08/09 11:44:36;;;;;;;0.66;0.43;;;;;;;23.17;46.11;99530.03;2004547;81;20167;-79
2021/08/09 11:47:52;;;;;;;2.17;0.50;;;;;;;23.20;44.57;99534.31;2024620;76;264563;-80
2021/08/09 11:51:44;;;;;;;3.14;0.51;;;;;;;23.49;46.25;99525.63;2011876;81;20273;-80
2021/08/09 11:54:48;;;;;;;;;;;;;;;23.66;45.16;99527.38;2006514;81;20215;-79
2021/08/09 11:57:51;;;;;;;2.88;0.41;;;;;;;23.46;44.93;99516.97;2004611;80;20075;-79
2021/08/09 12:00:55;;;;;;;1.23;0.71;;;;;;;23.52;45.89;99520.16;2005011;77;105057;-80
2021/08/09 12:04:15;;;;;;;2.04;0.50;;;;;;;23.68;45.99;99525.47;2019655;80;20203;-81
2021/08/09 12:07:21;;;;;;;1.36;0.44;;;;;;;24.02;45.05;99521.78;2006604;80;20225;-80
2021/08/09 12:10:28;;;;;;;2.71;0.48;;;;;;;24.00;44.54;99523.66;2003459;81;20194;-80
2021/08/09 12:14:33;;;;;;;1.42;0.40;;;;;;;23.75;43.02;99520.72;2003176;81;20284;-81
2021/08/09 12:17:38;;;;;;;2.85;0.61;;;;;;;23.63;43.59;99521.38;1997276;79;999965;-79
2021/08/09 12:20:41;;;;;;;1.30;0.50;;;;;;;23.84;43.10;99522.81;2006271;81;20207;-79
2021/08/09 12:23:52;;;;;;;1.70;0.49;;;;;;;24.18;45.04;99515.59;2005198;79;20624;-78
2021/08/09 12:27:20;;;;;;;1.63;0.46;;;;;;;24.51;43.67;99521.59;2006581;80;20248;-80
2021/08/09 12:30:22;;;;;;;3.09;0.49;;;;;;;24.79;43.16;99507.53;2004293;77;45362;-79
2021/08/09 12:33:25;;;;;;;2.63;0.40;;;;;;;24.54;43.15;99523.22;2002107;80;20211;-75
2021/08/09 12:36:28;;;;;;;1.34;0.50;;;;;;;24.06;42.99;99515.38;2000247;81;20724;-75
2021/08/09 12:41:29;;;;;;;1.35;0.40;;;;;;;24.16;44.49;99507.72;2069197;77;20185;-77
2021/08/09 12:44:31;;;;;;;3.24;0.40;;;;;;;23.92;44.94;99520.59;2059393;78;20253;-78
2021/08/09 12:47:34;;;;;;;1.56;0.50;;;;;;;23.81;46.71;99521.19;2045408;76;24447;-79
2021/08/09 12:50:38;;;;;;;5.47;0.50;;;;;;;23.68;46.76;99524.63;2042848;79;20747;-75
2021/08/09 12:53:41;;;;;;;2.97;0.63;;;;;;;23.66;45.64;99518.56;2041341;79;20570;-77
2021/08/09 12:56:43;;;;;;;1.71;0.40;;;;;;;23.61;46.10;99525.91;2043109;79;20177;-78
2021/08/09 12:59:46;;;;;;;2.90;0.50;;;;;;;23.65;45.26;99522.16;2043617;79;20177;-78
2021/08/09 13:02:49;;;;;;;3.09;0.40;;;;;;;23.77;45.29;99529.44;2047741;76;21532;-77
2021/08/09 13:05:52;;;;;;;1.79;0.50;;;;;;;23.85;44.09;99521.03;2046646;79;20853;-76
2021/08/09 13:08:55;;;;;;;1.21;0.41;;;;;;;23.77;42.44;99526.78;2049298;79;20179;-76
2021/08/09 13:11:59;;;;;;;0.69;0.30;;;;;;;23.67;42.18;99533.53;2043853;79;20242;-77
2021/08/09 13:15:03;;;;;;;3.03;0.35;;;;;;;23.68;41.39;99529.94;2046887;79;20172;-78
2021/08/09 13:18:10;;;;;;;1.54;0.40;;;;;;;23.59;42.14;99533.97;2042880;76;20217;-77
2021/08/09 13:21:14;;;;;;;1.05;0.49;;;;;;;23.59;42.76;99526.00;2041347;79;20230;-77
2021/08/09 13:24:19;;;;;;;1.88;0.60;;;;;;;23.55;42.50;99526.25;2042031;79;20251;-77
2021/08/09 13:27:22;;;;;;;1.17;0.40;;;;;;;23.58;42.79;99528.75;2042626;79;20328;-77
2021/08/09 13:30:26;;;;;;;5.94;0.51;;;;;;;23.68;43.94;99517.53;2045489;79;20177;-77
2021/08/09 13:33:30;;;;;;;3.34;0.51;;;;;;;24.08;43.48;99520.59;2035264;79;20216;-77
2021/08/09 13:36:37;;;;;;;0.39;0.30;;;;;;;24.41;39.31;99507.16;2035544;79;20262;-77
2021/08/09 13:39:42;;;;;;;5.06;0.36;;;;;;;24.66;39.43;99517.19;2038323;79;20666;-77
2021/08/09 13:42:47;;;;;;;1.92;0.43;;;;;;;24.66;39.14;99512.72;2034001;79;20682;-78
2021/08/09 13:45:51;;;;;;;1.49;0.52;;;;;;;24.71;39.59;99507.13;2041093;76;24309;-77
2021/08/09 13:49:01;;;;;;;0.51;0.30;;;;;;;24.64;37.99;99506.66;2048310;68;20301;-79
2021/08/09 13:52:25;;;;;;;2.28;0.40;;;;;;;24.54;38.25;99499.31;2015938;68;20181;-79
2021/08/09 13:55:32;;;;;;;6.64;0.50;;;;;;;24.54;39.69;99494.84;2029659;79;20181;-79
2021/08/09 13:58:38;;;;;;;0.40;0.40;;;;;;;24.63;39.41;99496.13;2032890;79;20198;-79
2021/08/09 14:01:44;;;;;;;1.90;0.42;;;;;;;24.52;36.98;99490.59;2028151;77;21781;-79
2021/08/09 14:04:47;;;;;;;1.98;0.40;;;;;;;24.37;37.97;99487.03;2028822;79;20190;-79
2021/08/09 14:07:51;;;;;;;1.31;0.40;;;;;;;24.43;39.29;99488.50;2028562;79;20204;-78
2021/08/09 14:10:54;;;;;;;1.09;0.31;;;;;;;24.69;39.35;99487.78;2030472;79;20183;-78
2021/08/09 14:13:57;;;;;;;1.70;0.40;;;;;;;24.70;37.93;99489.47;2027200;79;20660;-77
2021/08/09 14:17:03;;;;;;;1.15;0.35;;;;;;;24.77;37.67;99489.94;2029889;77;22024;-77
2021/08/09 14:20:09;;;;;;;1.79;0.40;;;;;;;24.81;38.95;99489.69;2031361;79;20206;-78
2021/08/09 14:23:12;;;;;;;0.80;0.40;;;;;;;24.93;40.12;99491.56;2030579;79;20532;-78
2021/08/09 14:26:15;;;;;;;1.90;0.40;;;;;;;24.96;40.48;99485.25;2033128;79;21040;-78
2021/08/09 14:29:18;;;;;;;1.65;0.40;;;;;;;25.01;37.14;99477.88;2036775;79;20187;-79
2021/08/09 14:32:22;;;;;;;2.74;0.50;;;;;;;24.94;36.22;99492.44;2035088;76;20690;-80
2021/08/09 14:35:24;;;;;;;1.33;0.35;;;;;;;24.79;37.76;99498.72;2037807;79;21051;-79
2021/08/09 14:38:27;;;;;;;0.47;0.30;;;;;;;24.53;35.50;99487.84;2036051;79;20178;-80
2021/08/09 14:41:29;;;;;;;0.82;0.36;;;;;;;24.63;38.10;99485.50;2037493;79;20302;-79
2021/08/09 14:44:32;;;;;;;0.80;0.35;;;;;;;24.67;38.85;99479.91;2039430;79;20211;-81
2021/08/09 14:47:38;;;;;;;2.58;0.40;;;;;;;24.88;39.42;99484.84;2040261;76;20660;-79
2021/08/09 14:50:40;;;;;;;0.99;0.40;;;;;;;24.94;38.29;99493.28;2039821;79;20284;-82
2021/08/09 14:53:43;;;;;;;1.50;0.50;;;;;;;24.67;36.11;99489.66;2036573;79;20186;-80
2021/08/09 14:56:46;;;;;;;1.04;0.45;;;;;;;24.36;38.29;99477.38;2036504;79;20251;-79
2021/08/09 14:59:48;;;;;;;1.08;0.30;;;;;;;24.47;38.18;99485.56;2034596;79;20315;-78
2021/08/09 15:02:51;;;;;;;1.33;0.38;;;;;;;24.55;39.91;99490.41;2032065;77;21254;-78
2021/08/09 15:05:54;;;;;;;1.01;0.30;;;;;;;24.58;38.73;99487.56;2028700;79;20665;-77
2021/08/09 15:08:57;;;;;;;2.83;0.40;;;;;;;24.36;38.88;99488.00;2032444;79;20207;-77
2021/08/09 15:12:00;;;;;;;1.89;0.34;;;;;;;24.02;37.64;99484.63;2032631;79;20190;-77
2021/08/09 15:15:06;;;;;;;1.92;0.49;;;;;;;23.97;39.04;99485.84;2032235;79;20919;-77
2021/08/09 15:18:09;;;;;;;2.76;0.85;;;;;;;23.74;39.24;99487.19;2033973;77;22036;-77
2021/08/09 15:21:12;;;;;;;2.08;0.50;;;;;;;23.56;38.91;99488.19;2032120;79;20178;-77
2021/08/09 15:24:14;;;;;;;2.29;0.45;;;;;;;23.53;40.62;99489.22;2032501;79;20173;-77
2021/08/09 15:27:17;;;;;;;1.90;0.40;;;;;;;23.29;39.12;99482.59;2031645;79;20213;-78
2021/08/09 15:30:20;;;;;;;1.51;0.40;;;;;;;23.10;39.73;99491.56;2031587;79;20190;-77
2021/08/09 15:33:22;;;;;;;1.01;0.40;;;;;;;23.04;40.54;99494.53;2032755;77;21402;-76
2021/08/09 15:36:25;;;;;;;3.33;1.08;;;;;;;23.05;40.09;99487.44;2032914;79;20181;-76
2021/08/09 15:39:28;;;;;;;5.14;0.51;;;;;;;23.15;41.91;99483.34;2033474;79;20708;-76
2021/08/09 15:42:30;;;;;;;0.52;0.40;;;;;;;23.29;41.79;99479.97;2029009;79;20303;-76
2021/08/09 15:45:34;;;;;;;3.99;0.71;;;;;;;23.59;41.90;99485.38;2033814;79;20552;-76
2021/08/09 15:48:43;;;;;;;1.74;0.70;;;;;;;23.81;41.33;99478.78;2034243;79;20318;-76
2021/08/09 15:51:46;;;;;;;2.50;0.56;;;;;;;24.02;41.29;99483.78;2034811;79;20173;-77
2021/08/09 15:54:48;;;;;;;2.91;0.60;;;;;;;23.86;38.67;99481.16;2035587;79;20861;-78
2021/08/09 15:57:51;;;;;;;1.19;0.41;;;;;;;23.91;41.26;99478.25;2035459;79;20183;-79
2021/08/09 16:00:53;;;;;;;1.33;0.38;;;;;;;23.92;40.47;99480.81;2035173;79;20585;-77
2021/08/09 16:03:58;;;;;;;0.93;0.44;;;;;;;23.98;42.59;99479.59;2034620;79;20346;-78
2021/08/09 16:07:00;;;;;;;1.46;0.40;;;;;;;23.94;41.76;99486.03;2034164;79;20816;-78
2021/08/09 16:10:03;;;;;;;1.85;0.57;;;;;;;23.97;41.70;99478.75;2032231;79;20928;-77
2021/08/09 16:13:06;;;;;;;1.31;0.36;;;;;;;24.07;41.64;99473.78;2032190;79;20186;-78
2021/08/09 16:16:09;;;;;;;1.70;0.47;;;;;;;24.27;41.35;99465.50;2035646;79;20430;-78
2021/08/09 16:19:16;;;;;;;1.16;0.40;;;;;;;24.46;40.99;99467.94;2033690;79;20193;-78
2021/08/09 16:22:19;;;;;;;2.76;0.40;;;;;;;24.30;41.42;99459.19;2035741;79;20209;-78